Terminal Aerodrome Forecast
Issued by NWS

Home | Current Version | Previous Version | Text Only | Print | Product List | Glossary On
Versions: 1 2 3 4 5 6 7 8 9 10 11 12 13 14 15 16 17 18 19
000
FTUS43 KAPX 240903 AAA
TAFPLN
TAF AMD
KPLN 240903Z 2409/2506 09007KT 5SM -RA BR OVC005
     FM241300 25008KT 6SM -RA BR OVC010
     FM241900 30009KT 6SM -RA BR OVC018
     FM242300 29008KT 1SM -SN OVC014=

USA.gov is the U.S. government's official web portal to all federal, state and local government web resources and services.